sensor_id;sensor_type;location;lat;lon;timestamp;temperature;humidity
14741;DHT22;7462;53.530;9.414;2022-07-23T00:00:58;17.30;99.90
14741;DHT22;7462;53.530;9.414;2022-07-23T00:03:26;17.30;99.90
14741;DHT22;7462;53.530;9.414;2022-07-23T00:05:54;17.20;99.90
14741;DHT22;7462;53.530;9.414;2022-07-23T00:08:22;17.30;99.90
14741;DHT22;7462;53.530;9.414;2022-07-23T00:10:50;17.30;99.90
14741;DHT22;7462;53.530;9.414;2022-07-23T00:13:18;17.20;99.90
14741;DHT22;7462;53.530;9.414;2022-07-23T00:15:47;17.20;99.90
14741;DHT22;7462;53.530;9.414;2022-07-23T00:18:16;17.20;99.90
14741;DHT22;7462;53.530;9.414;2022-07-23T00:20:44;17.20;99.90
14741;DHT22;7462;53.530;9.414;2022-07-23T00:23:12;17.20;99.90
14741;DHT22;7462;53.530;9.414;2022-07-23T00:25:40;17.20;99.90
14741;DHT22;7462;53.530;9.414;2022-07-23T00:28:08;17.20;99.90
14741;DHT22;7462;53.530;9.414;2022-07-23T00:30:37;17.20;99.90
14741;DHT22;7462;53.530;9.414;2022-07-23T00:33:07;17.20;99.90
14741;DHT22;7462;53.530;9.414;2022-07-23T00:35:38;17.20;99.90
14741;DHT22;7462;53.530;9.414;2022-07-23T00:38:08;17.20;99.90
14741;DHT22;7462;53.530;9.414;2022-07-23T00:40:38;17.20;99.90
14741;DHT22;7462;53.530;9.414;2022-07-23T00:43:06;17.20;99.90
14741;DHT22;7462;53.530;9.414;2022-07-23T00:45:35;17.20;99.90
14741;DHT22;7462;53.530;9.414;2022-07-23T00:48:08;17.10;99.90
14741;DHT22;7462;53.530;9.414;2022-07-23T00:50:37;17.10;99.90
14741;DHT22;7462;53.530;9.414;2022-07-23T00:53:05;17.10;99.90
14741;DHT22;7462;53.530;9.414;2022-07-23T00:55:35;17.10;99.90
14741;DHT22;7462;53.530;9.414;2022-07-23T00:58:04;17.10;99.90
14741;DHT22;7462;53.530;9.414;2022-07-23T01:00:33;17.20;99.90
14741;DHT22;7462;53.530;9.414;2022-07-23T01:03:01;17.10;99.90
14741;DHT22;7462;53.530;9.414;2022-07-23T01:05:29;17.10;99.90
14741;DHT22;7462;53.530;9.414;2022-07-23T01:07:59;17.10;99.90
14741;DHT22;7462;53.530;9.414;2022-07-23T01:10:27;17.10;99.90
14741;DHT22;7462;53.530;9.414;2022-07-23T01:13:03;17.00;99.90
14741;DHT22;7462;53.530;9.414;2022-07-23T01:15:34;17.00;99.90
14741;DHT22;7462;53.530;9.414;2022-07-23T01:18:03;17.00;99.90
14741;DHT22;7462;53.530;9.414;2022-07-23T01:20:32;17.10;99.90
14741;DHT22;7462;53.530;9.414;2022-07-23T01:23:02;17.10;99.90
14741;DHT22;7462;53.530;9.414;2022-07-23T01:25:30;17.10;99.90
14741;DHT22;7462;53.530;9.414;2022-07-23T01:28:02;17.10;99.90
14741;DHT22;7462;53.530;9.414;2022-07-23T01:30:30;17.10;99.90
14741;DHT22;7462;53.530;9.414;2022-07-23T01:33:00;17.10;99.90
14741;DHT22;7462;53.530;9.414;2022-07-23T01:35:28;17.00;99.90
14741;DHT22;7462;53.530;9.414;2022-07-23T01:38:02;17.00;99.90
14741;DHT22;7462;53.530;9.414;2022-07-23T01:40:30;17.10;99.90
14741;DHT22;7462;53.530;9.414;2022-07-23T01:42:58;17.00;99.90
14741;DHT22;7462;53.530;9.414;2022-07-23T01:45:28;17.00;99.90
14741;DHT22;7462;53.530;9.414;2022-07-23T01:47:56;17.00;99.90
14741;DHT22;7462;53.530;9.414;2022-07-23T01:50:25;17.00;99.90
14741;DHT22;7462;53.530;9.414;2022-07-23T01:53:21;17.00;99.90
14741;DHT22;7462;53.530;9.414;2022-07-23T01:55:49;17.00;99.90
14741;DHT22;7462;53.530;9.414;2022-07-23T01:58:17;16.90;99.90
14741;DHT22;7462;53.530;9.414;2022-07-23T02:00:45;16.90;99.90
14741;DHT22;7462;53.530;9.414;2022-07-23T02:03:13;16.90;99.90
14741;DHT22;7462;53.530;9.414;2022-07-23T02:05:41;16.90;99.90
14741;DHT22;7462;53.530;9.414;2022-07-23T02:08:10;16.90;99.90
14741;DHT22;7462;53.530;9.414;2022-07-23T02:10:39;16.90;99.90
14741;DHT22;7462;53.530;9.414;2022-07-23T02:13:07;16.90;99.90
14741;DHT22;7462;53.530;9.414;2022-07-23T02:15:36;16.90;99.90
14741;DHT22;7462;53.530;9.414;2022-07-23T02:18:04;16.80;99.90
14741;DHT22;7462;53.530;9.414;2022-07-23T02:20:32;16.80;99.90
14741;DHT22;7462;53.530;9.414;2022-07-23T02:23:00;16.80;99.90
14741;DHT22;7462;53.530;9.414;2022-07-23T02:25:28;16.80;99.90
14741;DHT22;7462;53.530;9.414;2022-07-23T02:28:02;16.80;99.90
14741;DHT22;7462;53.530;9.414;2022-07-23T02:30:30;16.80;99.90
14741;DHT22;7462;53.530;9.414;2022-07-23T02:32:59;16.70;99.90
14741;DHT22;7462;53.530;9.414;2022-07-23T02:35:27;16.70;99.90
14741;DHT22;7462;53.530;9.414;2022-07-23T02:37:59;16.70;99.90
14741;DHT22;7462;53.530;9.414;2022-07-23T02:40:28;16.70;99.90
14741;DHT22;7462;53.530;9.414;2022-07-23T02:42:56;16.60;99.90
14741;DHT22;7462;53.530;9.414;2022-07-23T02:45:26;16.60;99.90
14741;DHT22;7462;53.530;9.414;2022-07-23T02:47:54;16.60;99.90
14741;DHT22;7462;53.530;9.414;2022-07-23T02:50:23;16.50;99.90
14741;DHT22;7462;53.530;9.414;2022-07-23T02:52:54;16.50;99.90
14741;DHT22;7462;53.530;9.414;2022-07-23T02:55:23;16.50;99.90
14741;DHT22;7462;53.530;9.414;2022-07-23T02:57:52;16.50;99.90
14741;DHT22;7462;53.530;9.414;2022-07-23T03:00:20;16.50;99.90
14741;DHT22;7462;53.530;9.414;2022-07-23T03:02:50;16.40;99.90
14741;DHT22;7462;53.530;9.414;2022-07-23T03:05:18;16.40;99.90
14741;DHT22;7462;53.530;9.414;2022-07-23T03:07:46;16.40;99.90
14741;DHT22;7462;53.530;9.414;2022-07-23T03:10:14;16.40;99.90
14741;DHT22;7462;53.530;9.414;2022-07-23T03:12:43;16.40;99.90
14741;DHT22;7462;53.530;9.414;2022-07-23T03:15:12;16.40;99.90
14741;DHT22;7462;53.530;9.414;2022-07-23T03:17:40;16.40;99.90
14741;DHT22;7462;53.530;9.414;2022-07-23T03:20:10;16.30;99.90
14741;DHT22;7462;53.530;9.414;2022-07-23T03:22:38;16.30;99.90
14741;DHT22;7462;53.530;9.414;2022-07-23T03:25:08;16.40;99.90
14741;DHT22;7462;53.530;9.414;2022-07-23T03:27:37;16.30;99.90
14741;DHT22;7462;53.530;9.414;2022-07-23T03:30:06;16.30;99.90
14741;DHT22;7462;53.530;9.414;2022-07-23T03:32:35;16.40;99.90
14741;DHT22;7462;53.530;9.414;2022-07-23T03:35:03;16.40;99.90
14741;DHT22;7462;53.530;9.414;2022-07-23T03:37:36;16.40;99.90
14741;DHT22;7462;53.530;9.414;2022-07-23T03:40:05;16.40;99.90
14741;DHT22;7462;53.530;9.414;2022-07-23T03:42:34;16.40;99.90
14741;DHT22;7462;53.530;9.414;2022-07-23T03:45:05;16.40;99.90
14741;DHT22;7462;53.530;9.414;2022-07-23T03:47:33;16.40;99.90
14741;DHT22;7462;53.530;9.414;2022-07-23T03:50:03;16.30;99.90
14741;DHT22;7462;53.530;9.414;2022-07-23T03:52:32;16.30;99.90
14741;DHT22;7462;53.530;9.414;2022-07-23T03:55:01;16.30;99.90
14741;DHT22;7462;53.530;9.414;2022-07-23T03:57:29;16.20;99.90
14741;DHT22;7462;53.530;9.414;2022-07-23T03:59:58;16.30;99.90
14741;DHT22;7462;53.530;9.414;2022-07-23T04:02:26;16.30;99.90
14741;DHT22;7462;53.530;9.414;2022-07-23T04:04:55;16.30;99.90
14741;DHT22;7462;53.530;9.414;2022-07-23T04:07:23;16.30;99.90
14741;DHT22;7462;53.530;9.414;2022-07-23T04:09:51;16.30;99.90
14741;DHT22;7462;53.530;9.414;2022-07-23T04:12:21;16.40;99.90
14741;DHT22;7462;53.530;9.414;2022-07-23T04:14:49;16.40;99.90
14741;DHT22;7462;53.530;9.414;2022-07-23T04:17:17;16.40;99.90
14741;DHT22;7462;53.530;9.414;2022-07-23T04:19:45;16.50;99.90
14741;DHT22;7462;53.530;9.414;2022-07-23T04:22:17;16.50;99.90
14741;DHT22;7462;53.530;9.414;2022-07-23T04:24:46;16.50;99.90
14741;DHT22;7462;53.530;9.414;2022-07-23T04:27:15;16.50;99.90
14741;DHT22;7462;53.530;9.414;2022-07-23T04:29:44;16.50;99.90
14741;DHT22;7462;53.530;9.414;2022-07-23T04:32:13;16.50;99.90
14741;DHT22;7462;53.530;9.414;2022-07-23T04:34:42;16.50;99.90
14741;DHT22;7462;53.530;9.414;2022-07-23T04:37:10;16.50;99.90
14741;DHT22;7462;53.530;9.414;2022-07-23T04:39:39;16.60;99.90
14741;DHT22;7462;53.530;9.414;2022-07-23T04:42:07;16.50;99.90
14741;DHT22;7462;53.530;9.414;2022-07-23T04:44:35;16.60;99.90
14741;DHT22;7462;53.530;9.414;2022-07-23T04:47:06;16.60;99.90
14741;DHT22;7462;53.530;9.414;2022-07-23T04:49:35;16.50;99.90
14741;DHT22;7462;53.530;9.414;2022-07-23T04:52:04;16.50;99.90
14741;DHT22;7462;53.530;9.414;2022-07-23T04:54:32;16.60;99.90
14741;DHT22;7462;53.530;9.414;2022-07-23T04:57:01;16.60;99.90
14741;DHT22;7462;53.530;9.414;2022-07-23T04:59:30;16.60;99.90
14741;DHT22;7462;53.530;9.414;2022-07-23T05:02:02;16.60;99.90
14741;DHT22;7462;53.530;9.414;2022-07-23T05:04:32;16.60;99.90
14741;DHT22;7462;53.530;9.414;2022-07-23T05:07:01;16.70;99.90
14741;DHT22;7462;53.530;9.414;2022-07-23T05:09:30;16.70;99.90
14741;DHT22;7462;53.530;9.414;2022-07-23T05:11:59;16.70;99.90
14741;DHT22;7462;53.530;9.414;2022-07-23T05:14:27;16.70;99.90
14741;DHT22;7462;53.530;9.414;2022-07-23T05:16:55;16.70;99.90
14741;DHT22;7462;53.530;9.414;2022-07-23T05:19:24;16.70;99.90
14741;DHT22;7462;53.530;9.414;2022-07-23T05:21:54;16.80;99.90
14741;DHT22;7462;53.530;9.414;2022-07-23T05:24:22;16.80;99.90
14741;DHT22;7462;53.530;9.414;2022-07-23T05:26:51;16.80;99.90
14741;DHT22;7462;53.530;9.414;2022-07-23T05:29:21;16.80;99.90
14741;DHT22;7462;53.530;9.414;2022-07-23T05:31:49;16.80;99.90
14741;DHT22;7462;53.530;9.414;2022-07-23T05:34:17;16.80;99.90
14741;DHT22;7462;53.530;9.414;2022-07-23T05:36:46;16.80;99.90
14741;DHT22;7462;53.530;9.414;2022-07-23T05:39:17;16.80;99.90
14741;DHT22;7462;53.530;9.414;2022-07-23T05:41:45;16.80;99.90
14741;DHT22;7462;53.530;9.414;2022-07-23T05:44:13;16.70;99.90
14741;DHT22;7462;53.530;9.414;2022-07-23T05:46:43;16.60;99.90
14741;DHT22;7462;53.530;9.414;2022-07-23T05:49:17;16.60;99.90
14741;DHT22;7462;53.530;9.414;2022-07-23T05:52:07;16.60;99.90
14741;DHT22;7462;53.530;9.414;2022-07-23T05:54:54;16.50;99.90
14741;DHT22;7462;53.530;9.414;2022-07-23T05:57:22;16.50;99.90
14741;DHT22;7462;53.530;9.414;2022-07-23T05:59:51;16.40;99.90
14741;DHT22;7462;53.530;9.414;2022-07-23T06:02:19;16.50;99.90
14741;DHT22;7462;53.530;9.414;2022-07-23T06:04:48;16.50;99.90
14741;DHT22;7462;53.530;9.414;2022-07-23T06:07:29;16.50;99.90
14741;DHT22;7462;53.530;9.414;2022-07-23T06:09:58;16.60;99.90
14741;DHT22;7462;53.530;9.414;2022-07-23T06:12:26;16.70;99.90
14741;DHT22;7462;53.530;9.414;2022-07-23T06:14:55;16.80;99.90
14741;DHT22;7462;53.530;9.414;2022-07-23T06:17:23;17.00;99.90
14741;DHT22;7462;53.530;9.414;2022-07-23T06:19:52;17.20;99.90
14741;DHT22;7462;53.530;9.414;2022-07-23T06:22:20;17.40;99.90
14741;DHT22;7462;53.530;9.414;2022-07-23T06:24:49;17.60;99.90
14741;DHT22;7462;53.530;9.414;2022-07-23T06:27:21;17.80;99.90
14741;DHT22;7462;53.530;9.414;2022-07-23T06:29:52;17.80;99.90
14741;DHT22;7462;53.530;9.414;2022-07-23T06:32:20;17.80;99.90
14741;DHT22;7462;53.530;9.414;2022-07-23T06:34:48;17.80;99.90
14741;DHT22;7462;53.530;9.414;2022-07-23T06:37:17;17.80;99.90
14741;DHT22;7462;53.530;9.414;2022-07-23T06:39:46;17.80;99.90
14741;DHT22;7462;53.530;9.414;2022-07-23T06:42:14;17.90;99.90
14741;DHT22;7462;53.530;9.414;2022-07-23T06:44:45;17.90;99.90
14741;DHT22;7462;53.530;9.414;2022-07-23T06:47:16;18.00;99.90
14741;DHT22;7462;53.530;9.414;2022-07-23T06:49:44;18.00;99.90
14741;DHT22;7462;53.530;9.414;2022-07-23T06:52:13;17.90;99.90
14741;DHT22;7462;53.530;9.414;2022-07-23T06:54:41;17.80;99.90
14741;DHT22;7462;53.530;9.414;2022-07-23T06:57:09;17.70;99.90
14741;DHT22;7462;53.530;9.414;2022-07-23T06:59:37;17.70;99.90
14741;DHT22;7462;53.530;9.414;2022-07-23T07:02:09;17.80;99.90
14741;DHT22;7462;53.530;9.414;2022-07-23T07:04:37;18.00;99.90
14741;DHT22;7462;53.530;9.414;2022-07-23T07:07:05;18.20;99.90
14741;DHT22;7462;53.530;9.414;2022-07-23T07:09:33;18.30;99.90
14741;DHT22;7462;53.530;9.414;2022-07-23T07:12:02;18.40;99.90
14741;DHT22;7462;53.530;9.414;2022-07-23T07:14:30;18.90;99.90
14741;DHT22;7462;53.530;9.414;2022-07-23T07:16:58;19.30;99.90
14741;DHT22;7462;53.530;9.414;2022-07-23T07:19:27;19.50;99.90
14741;DHT22;7462;53.530;9.414;2022-07-23T07:21:55;19.40;99.90
14741;DHT22;7462;53.530;9.414;2022-07-23T07:24:23;19.20;99.90
14741;DHT22;7462;53.530;9.414;2022-07-23T07:26:59;19.00;99.90
14741;DHT22;7462;53.530;9.414;2022-07-23T07:29:27;18.80;99.90
14741;DHT22;7462;53.530;9.414;2022-07-23T07:31:55;18.70;99.90
14741;DHT22;7462;53.530;9.414;2022-07-23T07:34:23;18.70;99.90
14741;DHT22;7462;53.530;9.414;2022-07-23T07:36:53;18.70;99.90
14741;DHT22;7462;53.530;9.414;2022-07-23T07:39:21;18.70;99.90
14741;DHT22;7462;53.530;9.414;2022-07-23T07:41:49;18.50;99.90
14741;DHT22;7462;53.530;9.414;2022-07-23T07:44:17;18.60;99.90
14741;DHT22;7462;53.530;9.414;2022-07-23T07:46:46;18.70;99.90
14741;DHT22;7462;53.530;9.414;2022-07-23T07:49:14;19.00;99.90
14741;DHT22;7462;53.530;9.414;2022-07-23T07:51:48;19.20;99.90
14741;DHT22;7462;53.530;9.414;2022-07-23T07:54:19;19.40;99.90
14741;DHT22;7462;53.530;9.414;2022-07-23T07:56:47;19.50;99.90
14741;DHT22;7462;53.530;9.414;2022-07-23T07:59:15;19.80;99.90
14741;DHT22;7462;53.530;9.414;2022-07-23T08:01:43;20.20;99.90
14741;DHT22;7462;53.530;9.414;2022-07-23T08:04:11;20.50;99.90
14741;DHT22;7462;53.530;9.414;2022-07-23T08:06:39;20.60;99.90
14741;DHT22;7462;53.530;9.414;2022-07-23T08:09:07;20.80;99.90
14741;DHT22;7462;53.530;9.414;2022-07-23T08:11:37;21.40;99.90
14741;DHT22;7462;53.530;9.414;2022-07-23T08:14:05;22.00;99.90
14741;DHT22;7462;53.530;9.414;2022-07-23T08:16:33;22.20;99.90
14741;DHT22;7462;53.530;9.414;2022-07-23T08:19:21;22.10;99.90
14741;DHT22;7462;53.530;9.414;2022-07-23T08:21:50;21.90;99.90
14741;DHT22;7462;53.530;9.414;2022-07-23T08:24:18;21.60;99.90
14741;DHT22;7462;53.530;9.414;2022-07-23T08:26:47;21.60;99.90
14741;DHT22;7462;53.530;9.414;2022-07-23T08:29:15;21.60;99.90
14741;DHT22;7462;53.530;9.414;2022-07-23T08:31:43;21.50;99.90
14741;DHT22;7462;53.530;9.414;2022-07-23T08:34:12;21.40;99.90
14741;DHT22;7462;53.530;9.414;2022-07-23T08:36:40;21.10;99.90
14741;DHT22;7462;53.530;9.414;2022-07-23T08:39:08;21.20;99.90
14741;DHT22;7462;53.530;9.414;2022-07-23T08:41:39;21.60;99.90
14741;DHT22;7462;53.530;9.414;2022-07-23T08:44:10;21.90;99.90
14741;DHT22;7462;53.530;9.414;2022-07-23T08:46:38;21.80;99.90
14741;DHT22;7462;53.530;9.414;2022-07-23T08:49:10;21.90;99.90
14741;DHT22;7462;53.530;9.414;2022-07-23T08:51:39;22.50;99.90
14741;DHT22;7462;53.530;9.414;2022-07-23T08:54:08;22.40;99.90
14741;DHT22;7462;53.530;9.414;2022-07-23T08:56:36;22.30;99.90
14741;DHT22;7462;53.530;9.414;2022-07-23T08:59:04;21.80;99.90
14741;DHT22;7462;53.530;9.414;2022-07-23T09:01:33;21.40;99.90
14741;DHT22;7462;53.530;9.414;2022-07-23T09:04:02;20.70;99.90
14741;DHT22;7462;53.530;9.414;2022-07-23T09:06:30;20.20;99.90
14741;DHT22;7462;53.530;9.414;2022-07-23T09:09:16;19.80;99.90
14741;DHT22;7462;53.530;9.414;2022-07-23T09:11:46;19.40;99.90
14741;DHT22;7462;53.530;9.414;2022-07-23T09:14:14;19.10;99.90
14741;DHT22;7462;53.530;9.414;2022-07-23T09:16:44;19.00;99.90
14741;DHT22;7462;53.530;9.414;2022-07-23T09:19:12;19.00;99.90
14741;DHT22;7462;53.530;9.414;2022-07-23T09:21:40;19.10;99.90
14741;DHT22;7462;53.530;9.414;2022-07-23T09:24:10;19.30;99.90
14741;DHT22;7462;53.530;9.414;2022-07-23T09:26:40;19.50;99.90
14741;DHT22;7462;53.530;9.414;2022-07-23T09:29:11;19.70;99.90
14741;DHT22;7462;53.530;9.414;2022-07-23T09:31:46;20.00;99.90
14741;DHT22;7462;53.530;9.414;2022-07-23T09:34:19;20.40;99.90
14741;DHT22;7462;53.530;9.414;2022-07-23T09:36:51;20.70;99.90
14741;DHT22;7462;53.530;9.414;2022-07-23T09:39:26;20.90;99.90
14741;DHT22;7462;53.530;9.414;2022-07-23T09:41:55;20.70;99.90
14741;DHT22;7462;53.530;9.414;2022-07-23T09:44:24;20.90;99.90
14741;DHT22;7462;53.530;9.414;2022-07-23T09:46:59;21.20;99.90
14741;DHT22;7462;53.530;9.414;2022-07-23T09:49:28;21.50;99.90
14741;DHT22;7462;53.530;9.414;2022-07-23T09:51:59;21.90;99.90
14741;DHT22;7462;53.530;9.414;2022-07-23T09:54:33;22.20;99.90
14741;DHT22;7462;53.530;9.414;2022-07-23T09:57:04;22.40;99.90
14741;DHT22;7462;53.530;9.414;2022-07-23T09:59:36;22.40;99.90
14741;DHT22;7462;53.530;9.414;2022-07-23T10:02:08;22.60;99.90
14741;DHT22;7462;53.530;9.414;2022-07-23T10:04:53;22.80;99.90
14741;DHT22;7462;53.530;9.414;2022-07-23T10:07:32;23.10;99.90
14741;DHT22;7462;53.530;9.414;2022-07-23T10:10:21;23.10;99.90
14741;DHT22;7462;53.530;9.414;2022-07-23T10:13:25;22.80;99.90
14741;DHT22;7462;53.530;9.414;2022-07-23T10:16:11;22.10;99.90
14741;DHT22;7462;53.530;9.414;2022-07-23T10:18:45;22.10;99.90
14741;DHT22;7462;53.530;9.414;2022-07-23T10:21:21;21.90;99.90
14741;DHT22;7462;53.530;9.414;2022-07-23T10:24:04;22.00;99.90
14741;DHT22;7462;53.530;9.414;2022-07-23T10:26:41;22.30;99.90
14741;DHT22;7462;53.530;9.414;2022-07-23T10:29:27;22.50;99.90
14741;DHT22;7462;53.530;9.414;2022-07-23T10:32:04;22.60;99.90
14741;DHT22;7462;53.530;9.414;2022-07-23T10:34:44;22.90;99.90
14741;DHT22;7462;53.530;9.414;2022-07-23T10:37:14;23.70;99.90
14741;DHT22;7462;53.530;9.414;2022-07-23T10:39:48;23.80;99.90
14741;DHT22;7462;53.530;9.414;2022-07-23T10:42:17;23.60;99.90
14741;DHT22;7462;53.530;9.414;2022-07-23T10:44:46;23.30;99.90
14741;DHT22;7462;53.530;9.414;2022-07-23T10:47:26;23.00;99.90
14741;DHT22;7462;53.530;9.414;2022-07-23T10:50:19;22.90;99.90
14741;DHT22;7462;53.530;9.414;2022-07-23T10:53:08;22.70;99.90
14741;DHT22;7462;53.530;9.414;2022-07-23T10:55:41;22.60;99.90
14741;DHT22;7462;53.530;9.414;2022-07-23T10:58:09;22.40;99.90
14741;DHT22;7462;53.530;9.414;2022-07-23T11:00:37;22.70;99.90
14741;DHT22;7462;53.530;9.414;2022-07-23T11:03:33;22.80;99.90
14741;DHT22;7462;53.530;9.414;2022-07-23T11:06:05;23.00;99.90
14741;DHT22;7462;53.530;9.414;2022-07-23T11:08:34;23.10;99.90
14741;DHT22;7462;53.530;9.414;2022-07-23T11:11:10;22.90;99.90
14741;DHT22;7462;53.530;9.414;2022-07-23T11:13:40;22.80;99.90
14741;DHT22;7462;53.530;9.414;2022-07-23T11:16:22;22.50;99.90
14741;DHT22;7462;53.530;9.414;2022-07-23T11:19:05;22.30;99.90
14741;DHT22;7462;53.530;9.414;2022-07-23T11:21:51;22.40;99.90
14741;DHT22;7462;53.530;9.414;2022-07-23T11:24:21;22.60;99.90
14741;DHT22;7462;53.530;9.414;2022-07-23T11:29:47;23.10;99.90
14741;DHT22;7462;53.530;9.414;2022-07-23T11:32:37;23.40;99.90
14741;DHT22;7462;53.530;9.414;2022-07-23T11:35:19;23.50;99.90
14741;DHT22;7462;53.530;9.414;2022-07-23T11:37:49;23.10;99.90
14741;DHT22;7462;53.530;9.414;2022-07-23T11:40:20;23.00;99.90
14741;DHT22;7462;53.530;9.414;2022-07-23T11:42:57;22.90;99.90
14741;DHT22;7462;53.530;9.414;2022-07-23T11:45:32;22.90;99.90
14741;DHT22;7462;53.530;9.414;2022-07-23T11:48:01;22.90;99.90
14741;DHT22;7462;53.530;9.414;2022-07-23T11:50:29;22.90;99.90
14741;DHT22;7462;53.530;9.414;2022-07-23T11:52:59;22.80;99.90
14741;DHT22;7462;53.530;9.414;2022-07-23T11:55:28;22.30;99.90
14741;DHT22;7462;53.530;9.414;2022-07-23T11:57:56;22.30;99.90
14741;DHT22;7462;53.530;9.414;2022-07-23T12:00:27;22.20;99.90
14741;DHT22;7462;53.530;9.414;2022-07-23T12:02:58;22.30;99.90
14741;DHT22;7462;53.530;9.414;2022-07-23T12:05:30;22.40;99.90
14741;DHT22;7462;53.530;9.414;2022-07-23T12:08:01;22.30;99.90
14741;DHT22;7462;53.530;9.414;2022-07-23T12:10:33;22.10;99.90
14741;DHT22;7462;53.530;9.414;2022-07-23T12:13:03;21.90;99.90
14741;DHT22;7462;53.530;9.414;2022-07-23T12:15:33;21.80;99.90
14741;DHT22;7462;53.530;9.414;2022-07-23T12:18:05;21.80;99.90
14741;DHT22;7462;53.530;9.414;2022-07-23T12:20:35;21.80;99.90
14741;DHT22;7462;53.530;9.414;2022-07-23T12:23:06;21.90;99.90
14741;DHT22;7462;53.530;9.414;2022-07-23T12:25:36;22.00;99.90
14741;DHT22;7462;53.530;9.414;2022-07-23T12:28:06;22.10;99.90
14741;DHT22;7462;53.530;9.414;2022-07-23T12:30:38;22.10;99.90
14741;DHT22;7462;53.530;9.414;2022-07-23T12:33:08;22.20;99.90
14741;DHT22;7462;53.530;9.414;2022-07-23T12:35:38;22.40;99.90
14741;DHT22;7462;53.530;9.414;2022-07-23T12:38:10;22.70;99.90
14741;DHT22;7462;53.530;9.414;2022-07-23T12:40:43;22.90;99.90
14741;DHT22;7462;53.530;9.414;2022-07-23T12:43:19;22.80;99.90
14741;DHT22;7462;53.530;9.414;2022-07-23T12:45:49;22.70;99.90
14741;DHT22;7462;53.530;9.414;2022-07-23T12:48:21;22.40;99.90
14741;DHT22;7462;53.530;9.414;2022-07-23T12:50:52;22.20;99.90
14741;DHT22;7462;53.530;9.414;2022-07-23T12:53:24;22.00;99.90
14741;DHT22;7462;53.530;9.414;2022-07-23T12:55:59;21.90;99.90
14741;DHT22;7462;53.530;9.414;2022-07-23T12:58:45;21.50;99.90
14741;DHT22;7462;53.530;9.414;2022-07-23T13:01:30;21.60;99.90
14741;DHT22;7462;53.530;9.414;2022-07-23T13:04:02;21.80;99.90
14741;DHT22;7462;53.530;9.414;2022-07-23T13:06:41;21.90;99.90
14741;DHT22;7462;53.530;9.414;2022-07-23T13:09:32;22.00;99.90
14741;DHT22;7462;53.530;9.414;2022-07-23T13:12:08;22.00;99.90
14741;DHT22;7462;53.530;9.414;2022-07-23T13:14:37;22.10;99.90
14741;DHT22;7462;53.530;9.414;2022-07-23T13:17:07;22.40;99.90
14741;DHT22;7462;53.530;9.414;2022-07-23T13:19:36;22.50;99.90
14741;DHT22;7462;53.530;9.414;2022-07-23T13:22:04;22.60;99.90
14741;DHT22;7462;53.530;9.414;2022-07-23T13:24:37;22.50;99.90
14741;DHT22;7462;53.530;9.414;2022-07-23T13:27:06;22.60;99.90
14741;DHT22;7462;53.530;9.414;2022-07-23T13:29:39;22.60;99.90
14741;DHT22;7462;53.530;9.414;2022-07-23T13:32:07;22.70;99.90
14741;DHT22;7462;53.530;9.414;2022-07-23T13:34:38;22.40;99.90
14741;DHT22;7462;53.530;9.414;2022-07-23T13:37:08;22.30;99.90
14741;DHT22;7462;53.530;9.414;2022-07-23T13:39:37;22.40;99.90
14741;DHT22;7462;53.530;9.414;2022-07-23T13:42:05;22.70;99.90
14741;DHT22;7462;53.530;9.414;2022-07-23T13:44:34;22.70;99.90
14741;DHT22;7462;53.530;9.414;2022-07-23T13:47:03;22.80;99.90
14741;DHT22;7462;53.530;9.414;2022-07-23T13:49:31;22.90;99.90
14741;DHT22;7462;53.530;9.414;2022-07-23T13:52:01;22.80;99.90
14741;DHT22;7462;53.530;9.414;2022-07-23T13:54:33;22.40;99.90
14741;DHT22;7462;53.530;9.414;2022-07-23T13:57:03;22.40;99.90
14741;DHT22;7462;53.530;9.414;2022-07-23T13:59:32;22.50;99.90
14741;DHT22;7462;53.530;9.414;2022-07-23T14:02:00;22.70;99.90
14741;DHT22;7462;53.530;9.414;2022-07-23T14:04:47;22.60;99.90
14741;DHT22;7462;53.530;9.414;2022-07-23T14:07:15;22.30;99.90
14741;DHT22;7462;53.530;9.414;2022-07-23T14:09:45;22.20;99.90
14741;DHT22;7462;53.530;9.414;2022-07-23T14:12:16;22.20;99.90
14741;DHT22;7462;53.530;9.414;2022-07-23T14:14:44;22.20;99.90
14741;DHT22;7462;53.530;9.414;2022-07-23T14:17:13;22.10;99.90
14741;DHT22;7462;53.530;9.414;2022-07-23T14:19:41;22.00;99.90
14741;DHT22;7462;53.530;9.414;2022-07-23T14:22:10;21.90;99.90
14741;DHT22;7462;53.530;9.414;2022-07-23T14:24:39;22.00;99.90
14741;DHT22;7462;53.530;9.414;2022-07-23T14:27:07;22.00;99.90
14741;DHT22;7462;53.530;9.414;2022-07-23T14:29:37;22.00;99.90
14741;DHT22;7462;53.530;9.414;2022-07-23T14:32:05;21.80;99.90
14741;DHT22;7462;53.530;9.414;2022-07-23T14:34:34;21.80;99.90
14741;DHT22;7462;53.530;9.414;2022-07-23T14:37:04;21.70;99.90
14741;DHT22;7462;53.530;9.414;2022-07-23T14:39:33;21.70;99.90
14741;DHT22;7462;53.530;9.414;2022-07-23T14:42:01;21.80;99.90
14741;DHT22;7462;53.530;9.414;2022-07-23T14:44:30;21.70;99.90
14741;DHT22;7462;53.530;9.414;2022-07-23T14:46:59;21.70;99.90
14741;DHT22;7462;53.530;9.414;2022-07-23T14:49:28;21.70;99.90
14741;DHT22;7462;53.530;9.414;2022-07-23T14:51:56;22.00;99.90
14741;DHT22;7462;53.530;9.414;2022-07-23T14:54:25;22.10;99.90
14741;DHT22;7462;53.530;9.414;2022-07-23T14:56:56;21.90;99.90
14741;DHT22;7462;53.530;9.414;2022-07-23T14:59:25;21.70;99.90
14741;DHT22;7462;53.530;9.414;2022-07-23T15:01:53;21.50;99.90
14741;DHT22;7462;53.530;9.414;2022-07-23T15:04:24;21.50;99.90
14741;DHT22;7462;53.530;9.414;2022-07-23T15:07:04;21.40;99.90
14741;DHT22;7462;53.530;9.414;2022-07-23T15:09:32;21.40;99.90
14741;DHT22;7462;53.530;9.414;2022-07-23T15:12:02;21.30;99.90
14741;DHT22;7462;53.530;9.414;2022-07-23T15:14:33;21.20;99.90
14741;DHT22;7462;53.530;9.414;2022-07-23T15:17:01;21.30;99.90
14741;DHT22;7462;53.530;9.414;2022-07-23T15:19:31;21.40;99.90
14741;DHT22;7462;53.530;9.414;2022-07-23T15:21:59;21.40;99.90
14741;DHT22;7462;53.530;9.414;2022-07-23T15:24:29;21.70;99.90
14741;DHT22;7462;53.530;9.414;2022-07-23T15:26:57;21.90;99.90
14741;DHT22;7462;53.530;9.414;2022-07-23T15:29:25;21.80;99.90
14741;DHT22;7462;53.530;9.414;2022-07-23T15:31:54;21.50;99.90
14741;DHT22;7462;53.530;9.414;2022-07-23T15:34:24;21.60;99.90
14741;DHT22;7462;53.530;9.414;2022-07-23T15:36:54;21.50;99.90
14741;DHT22;7462;53.530;9.414;2022-07-23T15:39:22;21.40;99.90
14741;DHT22;7462;53.530;9.414;2022-07-23T15:41:51;21.40;99.90
14741;DHT22;7462;53.530;9.414;2022-07-23T15:44:19;21.30;99.90
14741;DHT22;7462;53.530;9.414;2022-07-23T15:46:56;21.10;99.90
14741;DHT22;7462;53.530;9.414;2022-07-23T15:49:25;21.00;99.90
14741;DHT22;7462;53.530;9.414;2022-07-23T15:51:55;20.90;99.90
14741;DHT22;7462;53.530;9.414;2022-07-23T15:54:24;20.80;99.90
14741;DHT22;7462;53.530;9.414;2022-07-23T15:56:52;20.80;99.90
14741;DHT22;7462;53.530;9.414;2022-07-23T15:59:21;20.80;99.90
14741;DHT22;7462;53.530;9.414;2022-07-23T16:01:55;20.70;99.90
14741;DHT22;7462;53.530;9.414;2022-07-23T16:04:24;20.80;99.90
14741;DHT22;7462;53.530;9.414;2022-07-23T16:06:52;20.70;99.90
14741;DHT22;7462;53.530;9.414;2022-07-23T16:09:22;20.70;99.90